createdAt,value
2019-01-04T00:01:43.010Z,5.80
2019-01-04T00:04:18.387Z,5.53
2019-01-04T00:06:50.241Z,5.80
2019-01-04T00:09:22.087Z,5.77
2019-01-04T00:11:53.956Z,6.27
2019-01-04T00:14:25.917Z,5.30
2019-01-04T00:16:57.763Z,5.73
2019-01-04T00:19:29.678Z,5.50
2019-01-04T00:22:01.480Z,5.87
2019-01-04T00:24:33.351Z,5.73
2019-01-04T00:27:05.240Z,6.33
2019-01-04T00:29:37.098Z,6.00
2019-01-04T00:32:09.830Z,5.60
2019-01-04T00:34:41.698Z,6.10
2019-01-04T00:37:13.538Z,6.00
2019-01-04T00:39:45.409Z,6.10
2019-01-04T00:42:17.233Z,5.63
2019-01-04T00:44:49.111Z,6.60
2019-01-04T00:47:21.000Z,5.90
2019-01-04T00:49:52.798Z,5.93
2019-01-04T00:52:24.650Z,6.40
2019-01-04T00:54:58.009Z,5.87
2019-01-04T00:58:13.380Z,6.87
2019-01-04T01:01:46.421Z,6.63
2019-01-04T01:05:14.325Z,5.90
2019-01-04T01:08:29.276Z,6.50
2019-01-04T01:11:54.095Z,7.03
2019-01-04T01:15:15.061Z,8.00
2019-01-04T01:19:03.510Z,8.00
2019-01-04T01:22:48.511Z,7.90
2019-01-04T01:26:13.260Z,8.27
2019-01-04T01:29:47.177Z,8.13
2019-01-04T01:32:55.176Z,8.47
2019-01-04T01:36:18.667Z,8.50
2019-01-04T01:39:42.804Z,8.87
2019-01-04T01:43:22.741Z,8.63
2019-01-04T01:46:54.807Z,8.83
2019-01-04T01:50:20.462Z,9.17
2019-01-04T01:52:52.550Z,9.23
2019-01-04T01:55:24.427Z,10.03
2019-01-04T01:57:56.258Z,10.17
2019-01-04T02:00:28.119Z,10.60
2019-01-04T02:02:59.978Z,10.57
2019-01-04T02:05:31.786Z,11.03
2019-01-04T02:08:03.643Z,10.63
2019-01-04T02:10:35.485Z,10.20
2019-01-04T02:13:07.369Z,11.70
2019-01-04T02:15:39.226Z,11.57
2019-01-04T02:18:11.094Z,12.47
2019-01-04T02:20:42.910Z,13.40
2019-01-04T02:23:14.776Z,12.83
2019-01-04T02:25:46.634Z,15.27
2019-01-04T02:28:18.460Z,15.40
2019-01-04T02:30:50.303Z,17.00
2019-01-04T02:33:22.156Z,16.83
2019-01-04T02:35:53.988Z,18.37
2019-01-04T02:38:25.855Z,16.37
2019-01-04T02:40:57.678Z,18.33
2019-01-04T02:43:29.546Z,18.57
2019-01-04T02:46:01.428Z,18.07
2019-01-04T02:48:33.314Z,18.40
2019-01-04T02:51:05.129Z,20.73
2019-01-04T02:53:37.000Z,20.57
2019-01-04T02:56:08.898Z,21.70
2019-01-04T02:58:40.732Z,23.00
2019-01-04T03:01:12.614Z,22.37
2019-01-04T03:03:44.482Z,22.10
2019-01-04T03:06:16.316Z,22.47
2019-01-04T03:08:48.181Z,21.43
2019-01-04T03:11:19.991Z,19.47
2019-01-04T03:13:51.855Z,18.43
2019-01-04T03:16:23.748Z,19.17
2019-01-04T03:18:55.707Z,17.83
2019-01-04T03:21:27.526Z,18.00
2019-01-04T03:23:59.441Z,17.07
2019-01-04T03:26:31.254Z,18.60
2019-01-04T03:29:03.074Z,18.03
2019-01-04T03:31:34.954Z,19.67
2019-01-04T03:34:06.754Z,19.97
2019-01-04T03:36:38.599Z,19.57
2019-01-04T03:39:10.463Z,19.07
2019-01-04T03:41:42.292Z,18.03
2019-01-04T03:44:14.157Z,18.07
2019-01-04T03:46:45.998Z,18.67
2019-01-04T03:49:17.813Z,17.30
2019-01-04T03:51:49.647Z,19.57
2019-01-04T03:54:21.522Z,18.57
2019-01-04T03:56:53.377Z,19.30
2019-01-04T03:59:25.216Z,18.43
2019-01-04T04:01:57.016Z,19.40
2019-01-04T04:04:28.835Z,18.27
2019-01-04T04:07:00.670Z,18.87
2019-01-04T04:09:32.525Z,20.13
2019-01-04T04:12:04.341Z,17.63
2019-01-04T04:14:36.195Z,19.43
2019-01-04T04:17:08.065Z,18.47
2019-01-04T04:19:39.903Z,18.60
2019-01-04T04:22:11.731Z,17.30
2019-01-04T04:24:43.589Z,17.13
2019-01-04T04:27:15.399Z,17.43
2019-01-04T04:29:47.229Z,17.20
2019-01-04T04:32:19.066Z,17.30
2019-01-04T04:34:50.925Z,16.37
2019-01-04T04:37:22.759Z,15.83
2019-01-04T04:39:54.625Z,15.80
2019-01-04T04:42:26.425Z,15.80
2019-01-04T04:44:58.275Z,15.60
2019-01-04T04:47:30.113Z,15.00
2019-01-04T04:50:02.095Z,14.47
2019-01-04T04:52:34.894Z,14.80
2019-01-04T04:55:06.967Z,14.23
2019-01-04T04:57:38.847Z,14.17
2019-01-04T05:00:10.886Z,13.57
2019-01-04T05:02:44.408Z,14.63
2019-01-04T05:05:16.247Z,14.73
2019-01-04T05:07:48.077Z,15.73
2019-01-04T05:10:19.945Z,15.97
2019-01-04T05:12:51.810Z,16.17
2019-01-04T05:15:23.637Z,15.57
2019-01-04T05:17:55.501Z,15.57
2019-01-04T05:20:27.340Z,17.33
2019-01-04T05:22:59.173Z,16.33
2019-01-04T05:25:31.033Z,17.00
2019-01-04T05:28:03.005Z,16.80
2019-01-04T05:30:34.865Z,19.77
2019-01-04T05:33:06.700Z,19.10
2019-01-04T05:35:38.547Z,17.70
2019-01-04T05:38:10.377Z,16.83
2019-01-04T05:40:42.232Z,16.40
2019-01-04T05:43:14.035Z,17.23
2019-01-04T05:45:45.936Z,15.33
2019-01-04T05:48:17.805Z,16.47
2019-01-04T05:50:49.632Z,16.97
2019-01-04T05:53:21.507Z,16.30
2019-01-04T05:55:53.357Z,16.07
2019-01-04T05:58:25.210Z,16.20
2019-01-04T06:00:57.185Z,16.00
2019-01-04T06:03:29.042Z,15.33
2019-01-04T06:06:00.843Z,15.67
2019-01-04T06:08:32.681Z,15.80
2019-01-04T06:11:04.591Z,15.83
2019-01-04T06:13:36.420Z,15.60
2019-01-04T06:16:08.272Z,15.13
2019-01-04T06:18:40.144Z,15.20
2019-01-04T06:21:12.002Z,15.30
2019-01-04T06:23:43.886Z,14.90
2019-01-04T06:26:15.769Z,14.80
2019-01-04T06:28:47.608Z,14.77
2019-01-04T06:31:19.496Z,15.03
2019-01-04T06:33:51.408Z,15.97
2019-01-04T06:36:23.301Z,14.57
2019-01-04T06:38:55.175Z,15.13
2019-01-04T06:41:27.005Z,14.33
2019-01-04T06:43:58.874Z,14.87
2019-01-04T06:46:30.737Z,15.37
2019-01-04T06:49:02.597Z,16.17
2019-01-04T06:51:34.434Z,14.30
2019-01-04T06:54:09.114Z,15.30
2019-01-04T06:56:40.980Z,14.53
2019-01-04T06:59:12.824Z,15.23
2019-01-04T07:01:44.643Z,14.47
2019-01-04T07:04:16.440Z,14.90
2019-01-04T07:06:48.350Z,14.43
2019-01-04T07:09:20.243Z,14.53
2019-01-04T07:11:52.141Z,13.37
2019-01-04T07:14:23.967Z,13.30
2019-01-04T07:16:55.850Z,11.23
2019-01-04T07:19:27.718Z,12.10
2019-01-04T07:21:59.552Z,12.87
2019-01-04T07:24:31.416Z,13.83
2019-01-04T07:27:03.256Z,13.97
2019-01-04T07:29:35.148Z,14.23
2019-01-04T07:32:06.949Z,13.67
2019-01-04T07:34:39.074Z,13.00
2019-01-04T07:37:10.932Z,13.03
2019-01-04T07:39:42.786Z,13.73
2019-01-04T07:42:14.653Z,13.27
2019-01-04T07:44:46.486Z,13.17
2019-01-04T07:47:18.379Z,14.53
2019-01-04T07:49:50.210Z,14.13
2019-01-04T07:52:22.076Z,14.47
2019-01-04T07:54:55.563Z,15.23
2019-01-04T07:57:27.809Z,16.23
2019-01-04T07:59:59.655Z,15.77
2019-01-04T08:02:51.530Z,16.13
2019-01-04T08:05:26.934Z,16.10
2019-01-04T08:07:58.856Z,15.60
2019-01-04T08:10:30.770Z,16.13
2019-01-04T08:13:02.642Z,17.20
2019-01-04T08:15:34.469Z,16.93
2019-01-04T08:18:06.321Z,16.17
2019-01-04T08:20:38.143Z,16.10
2019-01-04T08:23:09.982Z,16.80
2019-01-04T08:25:41.906Z,16.23
2019-01-04T08:28:13.800Z,17.13
2019-01-04T08:30:45.635Z,17.30
2019-01-04T08:33:17.653Z,18.23
2019-01-04T08:35:49.530Z,18.07
2019-01-04T08:38:21.423Z,18.93
2019-01-04T08:40:53.285Z,19.13
2019-01-04T08:43:25.186Z,19.13
2019-01-04T08:45:57.104Z,18.27
2019-01-04T08:48:28.942Z,18.50
2019-01-04T08:51:02.451Z,18.53
2019-01-04T08:54:02.077Z,17.83
2019-01-04T08:56:37.047Z,18.60
2019-01-04T08:59:08.886Z,17.97
2019-01-04T09:01:40.723Z,16.73
2019-01-04T09:04:12.626Z,16.77
2019-01-04T09:06:44.497Z,15.20
2019-01-04T09:09:16.375Z,15.80
2019-01-04T09:11:48.254Z,16.03
2019-01-04T09:14:20.115Z,16.00
2019-01-04T09:16:51.975Z,14.87
2019-01-04T09:19:23.849Z,14.53
2019-01-04T09:21:55.741Z,16.07
2019-01-04T09:24:27.612Z,13.90
2019-01-04T09:26:59.491Z,14.33
2019-01-04T09:29:31.349Z,14.43
2019-01-04T09:32:03.252Z,12.97
2019-01-04T09:34:35.179Z,13.87
2019-01-04T09:37:07.058Z,12.77
2019-01-04T09:39:38.952Z,12.50
2019-01-04T09:42:14.655Z,12.40
2019-01-04T09:44:47.298Z,11.83
2019-01-04T09:47:19.240Z,12.53
2019-01-04T09:49:51.114Z,12.30
2019-01-04T09:52:22.948Z,12.90
2019-01-04T09:54:54.809Z,11.90
2019-01-04T09:57:26.717Z,13.00
2019-01-04T09:59:58.574Z,13.00
2019-01-04T10:02:30.438Z,12.40
2019-01-04T10:05:02.302Z,11.73
2019-01-04T10:07:34.142Z,11.87
2019-01-04T10:10:07.188Z,12.57
2019-01-04T10:12:39.943Z,12.07
2019-01-04T10:15:15.486Z,13.07
2019-01-04T10:17:47.413Z,12.83
2019-01-04T10:20:19.245Z,12.13
2019-01-04T10:22:51.137Z,11.97
2019-01-04T10:25:23.003Z,12.30
2019-01-04T10:27:54.830Z,12.53
2019-01-04T10:30:28.351Z,12.60
2019-01-04T10:33:00.214Z,12.63
2019-01-04T10:35:32.205Z,12.47
2019-01-04T10:38:04.119Z,11.40
2019-01-04T10:40:35.970Z,11.20
2019-01-04T10:43:07.865Z,11.87
2019-01-04T10:45:39.728Z,11.77
2019-01-04T10:48:11.557Z,10.93
2019-01-04T10:50:43.421Z,10.80
2019-01-04T10:53:15.974Z,10.67
2019-01-04T10:55:47.900Z,10.20
2019-01-04T10:58:19.819Z,10.63
2019-01-04T11:00:51.695Z,10.93
2019-01-04T11:03:23.566Z,11.57
2019-01-04T11:05:55.424Z,11.93
2019-01-04T11:08:27.261Z,11.97
2019-01-04T11:10:59.101Z,11.87
2019-01-04T11:13:30.939Z,11.53
2019-01-04T11:16:02.819Z,11.23
2019-01-04T11:18:34.661Z,10.43
2019-01-04T11:21:10.045Z,10.07
2019-01-04T11:24:18.502Z,9.13
2019-01-04T11:27:09.457Z,8.30
2019-01-04T11:30:51.132Z,8.10
2019-01-04T11:34:07.135Z,8.73
2019-01-04T11:37:38.378Z,9.13
2019-01-04T11:40:47.807Z,8.60
2019-01-04T11:44:22.293Z,8.23
2019-01-04T11:47:26.261Z,9.60
2019-01-04T11:50:40.321Z,10.20
2019-01-04T11:53:18.347Z,10.17
2019-01-04T11:55:50.301Z,10.97
2019-01-04T11:58:22.209Z,10.10
2019-01-04T12:00:54.047Z,8.77
2019-01-04T12:03:25.916Z,9.10
2019-01-04T12:05:57.808Z,8.30
2019-01-04T12:08:29.675Z,8.17
2019-01-04T12:11:02.332Z,8.27
2019-01-04T12:13:34.193Z,8.00
2019-01-04T12:16:06.108Z,8.37
2019-01-04T12:18:37.991Z,8.83
2019-01-04T12:21:09.898Z,9.17
2019-01-04T12:23:41.881Z,9.33
2019-01-04T12:26:13.834Z,9.10
2019-01-04T12:28:45.866Z,9.00
2019-01-04T12:31:17.799Z,8.90
2019-01-04T12:33:49.717Z,8.70
2019-01-04T12:36:21.693Z,8.50
2019-01-04T12:38:53.675Z,9.33
2019-01-04T12:41:25.714Z,9.07
2019-01-04T12:43:57.641Z,9.20
2019-01-04T12:46:29.810Z,9.20
2019-01-04T12:49:01.738Z,9.57
2019-01-04T12:51:33.594Z,10.10
2019-01-04T12:54:05.549Z,10.60
2019-01-04T12:56:37.480Z,10.47
2019-01-04T12:59:10.267Z,9.77
2019-01-04T13:01:42.188Z,10.00
2019-01-04T13:04:14.107Z,10.60
2019-01-04T13:06:46.078Z,11.20
2019-01-04T13:09:17.999Z,10.93
2019-01-04T13:11:49.914Z,10.87
2019-01-04T13:14:21.930Z,11.43
2019-01-04T13:16:53.863Z,11.27
2019-01-04T13:19:26.001Z,10.80
2019-01-04T13:21:58.300Z,10.60
2019-01-04T13:24:30.200Z,10.40
2019-01-04T13:27:02.103Z,10.97
2019-01-04T13:29:33.998Z,10.97
2019-01-04T13:32:05.967Z,10.77
2019-01-04T13:34:37.840Z,10.97
2019-01-04T13:37:09.719Z,11.03
2019-01-04T13:39:41.591Z,10.87
2019-01-04T13:42:13.460Z,10.93
2019-01-04T13:44:45.324Z,10.97
2019-01-04T13:47:17.202Z,11.30
2019-01-04T13:49:49.061Z,11.60
2019-01-04T13:52:21.015Z,11.80
2019-01-04T13:54:54.551Z,11.37
2019-01-04T13:57:26.511Z,11.00
2019-01-04T13:59:58.417Z,12.07
2019-01-04T14:02:30.293Z,12.50
2019-01-04T14:05:02.191Z,12.67
2019-01-04T14:07:34.195Z,12.73
2019-01-04T14:10:07.311Z,13.17
2019-01-04T14:12:39.175Z,13.70
2019-01-04T14:15:11.318Z,14.33
2019-01-04T14:17:43.164Z,14.10
2019-01-04T14:20:15.017Z,14.80
2019-01-04T14:22:46.891Z,15.73
2019-01-04T14:25:18.769Z,14.47
2019-01-04T14:27:50.638Z,14.80
2019-01-04T14:30:22.879Z,15.43
2019-01-04T14:32:54.764Z,17.43
2019-01-04T14:35:26.661Z,15.67
2019-01-04T14:37:58.577Z,16.60
2019-01-04T14:40:30.447Z,16.90
2019-01-04T14:43:02.330Z,16.40
2019-01-04T14:45:34.203Z,16.43
2019-01-04T14:48:06.105Z,17.47
2019-01-04T14:50:37.957Z,16.60
2019-01-04T14:53:09.828Z,16.03
2019-01-04T14:55:41.749Z,16.13
2019-01-04T14:58:13.581Z,15.60
2019-01-04T15:00:45.515Z,15.70
2019-01-04T15:03:17.351Z,16.20
2019-01-04T15:05:50.567Z,16.37
2019-01-04T15:08:22.494Z,16.30
2019-01-04T15:10:54.427Z,15.80
2019-01-04T15:13:26.303Z,16.93
2019-01-04T15:15:58.157Z,16.60
2019-01-04T15:18:29.978Z,17.13
2019-01-04T15:21:01.827Z,17.00
2019-01-04T15:23:33.685Z,17.40
2019-01-04T15:26:05.532Z,17.23
2019-01-04T15:28:37.338Z,16.37
2019-01-04T15:31:09.204Z,16.67
2019-01-04T15:33:41.074Z,16.50
2019-01-04T15:36:12.902Z,16.50
2019-01-04T15:38:44.747Z,16.93
2019-01-04T15:41:16.624Z,17.20
2019-01-04T15:43:48.523Z,16.40
2019-01-04T15:46:19.835Z,16.60
2019-01-04T15:48:52.388Z,16.73
2019-01-04T15:51:24.235Z,16.20
2019-01-04T15:53:56.101Z,18.10
2019-01-04T15:56:27.968Z,18.70
2019-01-04T15:58:59.875Z,17.63
2019-01-04T16:01:31.841Z,19.07
2019-01-04T16:04:03.767Z,17.30
2019-01-04T16:06:35.712Z,17.80
2019-01-04T16:09:09.666Z,18.13
2019-01-04T16:11:41.732Z,17.20
2019-01-04T16:14:14.885Z,16.53
2019-01-04T16:16:46.910Z,16.00
2019-01-04T16:19:18.786Z,15.67
2019-01-04T16:21:50.822Z,15.83
2019-01-04T16:24:31.826Z,16.27
2019-01-04T16:27:03.831Z,16.27
2019-01-04T16:29:35.702Z,17.40
2019-01-04T16:32:07.577Z,17.40
2019-01-04T16:34:39.492Z,17.50
2019-01-04T16:37:11.476Z,17.57
2019-01-04T16:39:43.368Z,17.93
2019-01-04T16:42:15.228Z,18.47
2019-01-04T16:44:47.193Z,18.90
2019-01-04T16:47:19.094Z,18.13
2019-01-04T16:49:50.958Z,19.23
2019-01-04T16:52:22.873Z,19.33
2019-01-04T16:54:58.019Z,20.37
2019-01-04T16:57:29.966Z,18.13
2019-01-04T17:00:01.900Z,19.87
2019-01-04T17:02:34.109Z,20.43
2019-01-04T17:05:07.704Z,20.30
2019-01-04T17:07:39.535Z,20.53
2019-01-04T17:10:11.424Z,20.07
2019-01-04T17:12:43.321Z,21.17
2019-01-04T17:15:32.385Z,21.27
2019-01-04T17:18:11.923Z,21.23
2019-01-04T17:20:38.183Z,20.60
2019-01-04T17:23:10.148Z,21.47
2019-01-04T17:25:42.048Z,21.47
2019-01-04T17:28:13.958Z,22.03
2019-01-04T17:30:45.794Z,21.43
2019-01-04T17:33:17.611Z,23.63
2019-01-04T17:35:49.534Z,24.47
2019-01-04T17:38:21.413Z,24.07
2019-01-04T17:40:53.223Z,25.13
2019-01-04T17:43:25.075Z,24.90
2019-01-04T17:45:56.940Z,26.60
2019-01-04T17:48:28.792Z,26.13
2019-01-04T17:51:00.637Z,27.53
2019-01-04T17:53:32.475Z,27.40
2019-01-04T17:56:04.352Z,29.17
2019-01-04T17:58:36.175Z,28.00
2019-01-04T18:01:08.059Z,28.93
2019-01-04T18:03:39.892Z,29.17
2019-01-04T18:06:11.766Z,29.10
2019-01-04T18:08:43.721Z,28.80
2019-01-04T18:11:15.640Z,29.53
2019-01-04T18:13:47.566Z,29.90
2019-01-04T18:16:19.406Z,30.30
2019-01-04T18:18:51.367Z,31.87
2019-01-04T18:21:23.205Z,32.33
2019-01-04T18:23:55.034Z,33.43
2019-01-04T18:26:26.900Z,32.67
2019-01-04T18:28:58.755Z,32.80
2019-01-04T18:31:30.626Z,32.60
2019-01-04T18:34:02.490Z,34.20
2019-01-04T18:36:34.361Z,32.97
2019-01-04T18:39:07.183Z,33.80
2019-01-04T18:41:39.044Z,33.47
2019-01-04T18:44:10.931Z,32.73
2019-01-04T18:46:42.860Z,34.23
2019-01-04T18:49:14.722Z,33.33
2019-01-04T18:51:46.610Z,34.33
2019-01-04T18:54:18.462Z,36.80
2019-01-04T18:56:50.300Z,34.63
2019-01-04T18:59:21.601Z,33.17
2019-01-04T19:01:53.444Z,34.73
2019-01-04T19:04:25.287Z,34.33
2019-01-04T19:06:57.117Z,36.93
2019-01-04T19:09:28.952Z,36.83
2019-01-04T19:12:00.814Z,36.17
2019-01-04T19:14:34.313Z,36.97
2019-01-04T19:17:06.199Z,36.57
2019-01-04T19:19:38.079Z,37.60
2019-01-04T19:22:09.942Z,37.53
2019-01-04T19:24:41.881Z,37.60
2019-01-04T19:27:13.823Z,36.33
2019-01-04T19:29:45.659Z,35.97
2019-01-04T19:32:17.519Z,39.40
2019-01-04T19:34:49.438Z,37.57
2019-01-04T19:37:21.341Z,36.80
2019-01-04T19:39:53.256Z,37.10
2019-01-04T19:42:25.182Z,36.50
2019-01-04T19:44:57.099Z,38.10
2019-01-04T19:47:29.139Z,36.80
2019-01-04T19:50:07.642Z,35.67
2019-01-04T19:52:39.625Z,35.40
2019-01-04T19:55:11.495Z,36.03
2019-01-04T19:57:43.374Z,36.40
2019-01-04T20:00:15.252Z,37.00
2019-01-04T20:02:47.129Z,36.87
2019-01-04T20:07:05.588Z,36.17
2019-01-04T20:11:25.292Z,35.27
2019-01-04T20:15:51.090Z,33.37
2019-01-04T20:18:43.378Z,35.07
2019-01-04T20:21:30.471Z,35.73
2019-01-04T20:24:24.006Z,35.00
2019-01-04T20:27:18.917Z,35.70
2019-01-04T20:30:08.331Z,36.73
2019-01-04T20:33:10.976Z,35.20
2019-01-04T20:36:00.201Z,33.77
2019-01-04T20:38:55.083Z,35.03
2019-01-04T20:41:43.045Z,34.40
2019-01-04T20:44:46.059Z,34.03
2019-01-04T20:47:36.941Z,34.53
2019-01-04T20:50:25.222Z,32.33
2019-01-04T20:53:27.843Z,32.60
2019-01-04T20:56:22.308Z,33.13
2019-01-04T20:59:11.767Z,31.23
2019-01-04T21:02:01.297Z,30.33
2019-01-04T21:05:01.280Z,30.77
2019-01-04T21:08:04.046Z,31.80
2019-01-04T21:11:10.064Z,29.60
2019-01-04T21:14:11.079Z,30.03
2019-01-04T21:17:00.469Z,30.27
2019-01-04T21:20:07.175Z,30.43
2019-01-04T21:22:57.946Z,30.40
2019-01-04T21:25:50.471Z,31.83
2019-01-04T21:28:43.228Z,30.97
2019-01-04T21:31:33.760Z,30.60
2019-01-04T21:34:42.809Z,29.97
2019-01-04T21:37:36.319Z,30.40
2019-01-04T21:40:25.596Z,31.70
2019-01-04T21:43:25.418Z,32.40
2019-01-04T21:46:22.987Z,31.73
2019-01-04T21:49:15.712Z,32.27
2019-01-04T21:52:04.658Z,32.60
2019-01-04T21:54:53.861Z,31.13
2019-01-04T21:57:43.097Z,32.23
2019-01-04T22:00:32.570Z,33.17
2019-01-04T22:03:18.974Z,33.43
2019-01-04T22:06:23.410Z,33.33
2019-01-04T22:09:15.280Z,33.37
2019-01-04T22:12:12.167Z,32.70
2019-01-04T22:15:20.941Z,31.47
2019-01-04T22:18:17.523Z,32.00
2019-01-04T22:21:08.277Z,31.67
2019-01-04T22:24:09.452Z,33.03
2019-01-04T22:26:57.949Z,32.20
2019-01-04T22:29:41.843Z,33.63
2019-01-04T22:32:30.528Z,34.20
2019-01-04T22:35:18.980Z,32.40
2019-01-04T22:38:12.697Z,32.60
2019-01-04T22:41:01.850Z,33.60
2019-01-04T22:43:47.656Z,31.23
2019-01-04T22:46:47.287Z,31.63
2019-01-04T22:49:36.439Z,30.20
2019-01-04T22:52:39.110Z,32.03
2019-01-04T22:55:28.361Z,30.57
2019-01-04T22:58:15.241Z,30.03
2019-01-04T23:01:04.903Z,29.43
2019-01-04T23:03:54.142Z,30.07
2019-01-04T23:06:47.903Z,28.23
2019-01-04T23:09:37.439Z,28.67
2019-01-04T23:12:42.148Z,27.97
2019-01-04T23:15:51.320Z,29.23
2019-01-04T23:18:40.661Z,29.30
2019-01-04T23:22:07.474Z,29.40
2019-01-04T23:25:04.587Z,29.47
2019-01-04T23:28:00.487Z,29.60
2019-01-04T23:30:43.060Z,29.80
2019-01-04T23:33:36.592Z,29.43
2019-01-04T23:36:25.882Z,29.23
2019-01-04T23:39:22.772Z,29.77
2019-01-04T23:42:12.245Z,29.10
2019-01-04T23:45:21.089Z,29.63
2019-01-04T23:48:07.526Z,28.13
2019-01-04T23:51:13.812Z,27.13
2019-01-04T23:54:03.221Z,27.80
2019-01-04T23:56:52.509Z,29.30
2019-01-04T23:59:46.338Z,26.77
